Time;durP1;ratioP1;P1;durP2;ratioP2;P2;SDS_P1;SDS_P2;PMS_P1;PMS_P2;Temp;Humidity;BMP_temperature;BMP_pressure;BME280_temperature;BME280_humidity;BME280_pressure;Samples;Min_cycle;Max_cycle;Signal;HPM_P1;HPM_P2
2020/12/29 00:01:31;;;;;;;25.77;3.22;;;;;;;;;;4985151;28;20034;-46
2020/12/29 00:03:58;;;;;;;31.88;3.75;;;;;;;;;;4991246;28;20034;-47
2020/12/29 00:06:25;;;;;;;47.67;3.75;;;;;;;;;;4998139;28;20360;-44
2020/12/29 00:08:52;;;;;;;18.48;3.25;;;;;;;;;;4998169;28;20486;-43
2020/12/29 00:11:19;;;;;;;30.85;3.83;;;;;;;;;;4997910;28;20030;-46
2020/12/29 00:13:46;;;;;;;18.23;3.42;;;;;;;;;;4997779;28;20045;-50
2020/12/29 00:16:13;;;;;;;27.63;3.45;;;;;;;;;;4997197;28;20049;-44
2020/12/29 00:18:40;;;;;;;30.55;4.95;;;;;;;;;;4997684;28;20034;-45
2020/12/29 00:21:07;;;;;;;30.70;5.10;;;;;;;;;;4981610;28;20034;-45
2020/12/29 00:23:34;;;;;;;29.75;5.75;;;;;;;;;;4997401;28;20101;-45
2020/12/29 00:26:01;;;;;;;42.08;5.43;;;;;;;;;;4998011;28;20027;-48
2020/12/29 00:28:28;;;;;;;25.20;6.03;;;;;;;;;;4996345;28;20038;-45
2020/12/29 00:30:55;;;;;;;26.63;6.43;;;;;;;;;;4997642;28;20030;-46
2020/12/29 00:33:22;;;;;;;35.58;6.50;;;;;;;;;;4995690;28;20038;-45
2020/12/29 00:35:49;;;;;;;44.17;6.13;;;;;;;;;;4997237;28;20019;-48
2020/12/29 00:38:16;;;;;;;38.90;7.68;;;;;;;;;;4997118;28;20030;-46
2020/12/29 00:40:44;;;;;;;36.92;7.97;;;;;;;;;;4997597;28;20022;-48
2020/12/29 00:43:10;;;;;;;26.42;6.78;;;;;;;;;;4996989;28;20367;-46
2020/12/29 00:45:37;;;;;;;41.17;6.70;;;;;;;;;;4997434;28;20092;-45
2020/12/29 00:48:04;;;;;;;40.63;7.50;;;;;;;;;;4996763;28;20263;-44
2020/12/29 00:50:31;;;;;;;36.42;6.65;;;;;;;;;;4989979;28;20034;-46
2020/12/29 00:52:58;;;;;;;45.53;6.43;;;;;;;;;;4995348;28;20116;-45
2020/12/29 00:55:25;;;;;;;39.03;6.97;;;;;;;;;;4997554;28;20018;-46
2020/12/29 00:57:52;;;;;;;53.17;6.55;;;;;;;;;;4997168;28;20063;-45
2020/12/29 01:00:19;;;;;;;49.85;7.07;;;;;;;;;;4997092;28;20101;-45
2020/12/29 01:02:46;;;;;;;44.80;6.57;;;;;;;;;;4997097;28;20033;-46
2020/12/29 01:05:16;;;;;;;49.25;7.50;;;;;;;;;;4995738;28;20030;-48
2020/12/29 01:07:43;;;;;;;55.50;7.35;;;;;;;;;;4992215;28;20019;-45
2020/12/29 01:10:10;;;;;;;50.70;7.72;;;;;;;;;;4993087;28;20843;-46
2020/12/29 01:12:37;;;;;;;51.50;6.75;;;;;;;;;;4996909;28;20037;-44
2020/12/29 01:15:05;;;;;;;37.00;6.53;;;;;;;;;;4996511;28;20057;-44
2020/12/29 01:17:32;;;;;;;36.97;6.40;;;;;;;;;;4994198;28;20022;-44
2020/12/29 01:19:59;;;;;;;47.53;6.20;;;;;;;;;;4994427;28;20015;-43
2020/12/29 01:22:26;;;;;;;29.38;5.88;;;;;;;;;;4976832;28;20031;-44
2020/12/29 01:24:53;;;;;;;36.17;5.78;;;;;;;;;;4993631;28;20390;-43
2020/12/29 01:27:20;;;;;;;38.10;6.43;;;;;;;;;;4993833;28;20015;-43
2020/12/29 01:29:47;;;;;;;27.90;5.78;;;;;;;;;;4992864;28;20896;-43
2020/12/29 01:32:14;;;;;;;40.22;5.65;;;;;;;;;;4958571;28;20019;-45
2020/12/29 01:34:41;;;;;;;26.17;5.47;;;;;;;;;;4982969;28;20070;-43
2020/12/29 01:37:08;;;;;;;20.95;5.43;;;;;;;;;;4994253;28;20475;-44
2020/12/29 01:39:35;;;;;;;26.17;5.55;;;;;;;;;;4993817;28;20030;-46
2020/12/29 01:42:02;;;;;;;22.90;4.28;;;;;;;;;;4993353;28;20027;-46
2020/12/29 01:44:29;;;;;;;25.58;5.22;;;;;;;;;;4993109;28;20165;-44
2020/12/29 01:46:56;;;;;;;15.70;4.47;;;;;;;;;;4993272;28;20386;-44
2020/12/29 01:49:23;;;;;;;15.40;3.97;;;;;;;;;;4993782;28;20073;-46
2020/12/29 01:51:50;;;;;;;24.27;4.65;;;;;;;;;;4993517;28;20026;-44
2020/12/29 01:54:17;;;;;;;27.08;5.18;;;;;;;;;;4993557;28;20093;-45
2020/12/29 01:56:44;;;;;;;23.40;4.68;;;;;;;;;;4994274;28;20034;-44
2020/12/29 01:59:13;;;;;;;20.77;4.82;;;;;;;;;;4993262;28;20532;-44
2020/12/29 02:01:41;;;;;;;23.65;4.70;;;;;;;;;;4993806;28;20482;-45
2020/12/29 02:04:22;;;;;;;25.08;4.97;;;;;;;;;;4993886;28;20147;-45
2020/12/29 02:06:50;;;;;;;27.67;3.97;;;;;;;;;;4992091;28;20030;-46
2020/12/29 02:09:17;;;;;;;22.00;4.60;;;;;;;;;;4992811;28;20018;-47
2020/12/29 02:11:44;;;;;;;20.35;4.65;;;;;;;;;;4993184;28;20018;-45
2020/12/29 02:14:11;;;;;;;32.13;4.35;;;;;;;;;;4971911;28;20491;-44
2020/12/29 02:16:38;;;;;;;30.13;4.03;;;;;;;;;;4991038;28;20037;-44
2020/12/29 02:19:06;;;;;;;16.80;3.17;;;;;;;;;;4972638;28;20093;-46
2020/12/29 02:21:34;;;;;;;25.20;3.83;;;;;;;;;;4989222;28;20032;-46
2020/12/29 02:24:02;;;;;;;17.50;3.13;;;;;;;;;;4988758;28;20041;-44
2020/12/29 02:26:30;;;;;;;22.33;3.38;;;;;;;;;;4991328;28;20108;-43
2020/12/29 02:29:06;;;;;;;20.83;3.17;;;;;;;;;;4983769;28;20023;-45
2020/12/29 02:31:34;;;;;;;18.42;3.45;;;;;;;;;;4993454;28;20021;-45
2020/12/29 02:34:01;;;;;;;9.65;1.77;;;;;;;;;;4993176;28;20026;-50
2020/12/29 02:36:28;;;;;;;9.65;2.13;;;;;;;;;;5196689;22;20045;-47
2020/12/29 02:38:55;;;;;;;11.63;2.38;;;;;;;;;;5049112;28;20449;-44
2020/12/29 02:41:22;;;;;;;11.75;2.05;;;;;;;;;;5045682;28;20083;-47
2020/12/29 02:43:49;;;;;;;14.55;1.95;;;;;;;;;;5052082;28;20692;-46
2020/12/29 02:46:16;;;;;;;12.57;2.25;;;;;;;;;;5047021;28;20051;-49
2020/12/29 02:48:43;;;;;;;15.77;2.00;;;;;;;;;;5051818;28;20040;-46
2020/12/29 02:51:14;;;;;;;12.65;2.33;;;;;;;;;;5051705;28;20056;-47
2020/12/29 02:53:41;;;;;;;10.27;1.73;;;;;;;;;;5047083;28;20075;-46
2020/12/29 02:56:08;;;;;;;25.13;2.22;;;;;;;;;;5050883;28;20021;-48
2020/12/29 02:58:35;;;;;;;15.55;2.85;;;;;;;;;;5033672;28;20056;-47
2020/12/29 03:01:02;;;;;;;11.30;2.55;;;;;;;;;;5051403;28;20021;-48
2020/12/29 03:03:29;;;;;;;9.95;2.38;;;;;;;;;;5046499;28;20060;-47
2020/12/29 03:05:56;;;;;;;7.55;2.20;;;;;;;;;;5050989;28;20025;-44
2020/12/29 03:08:23;;;;;;;7.78;1.80;;;;;;;;;;5052303;28;20021;-44
2020/12/29 03:10:50;;;;;;;4.53;1.92;;;;;;;;;;5051759;28;20024;-45
2020/12/29 03:13:17;;;;;;;5.35;1.80;;;;;;;;;;5052553;28;20387;-44
2020/12/29 03:15:44;;;;;;;5.93;2.00;;;;;;;;;;5052391;28;20376;-44
2020/12/29 03:18:11;;;;;;;4.65;1.85;;;;;;;;;;5051254;28;20027;-44
2020/12/29 03:20:38;;;;;;;7.78;1.98;;;;;;;;;;5052155;28;20017;-45
2020/12/29 03:23:05;;;;;;;4.80;1.50;;;;;;;;;;5033431;28;20100;-45
2020/12/29 03:25:32;;;;;;;5.00;1.70;;;;;;;;;;5052090;28;20033;-44
2020/12/29 03:27:59;;;;;;;5.03;1.40;;;;;;;;;;5051078;28;20422;-46
2020/12/29 03:30:26;;;;;;;4.72;1.70;;;;;;;;;;5052449;28;20028;-46
2020/12/29 03:32:53;;;;;;;8.13;1.85;;;;;;;;;;5051462;28;20103;-45
2020/12/29 03:35:22;;;;;;;7.28;1.80;;;;;;;;;;5058618;28;20025;-45
2020/12/29 03:37:49;;;;;;;4.40;1.73;;;;;;;;;;5072074;28;20037;-44
2020/12/29 03:40:16;;;;;;;5.05;1.50;;;;;;;;;;5071822;28;20028;-46
2020/12/29 03:42:43;;;;;;;4.43;1.55;;;;;;;;;;5071899;28;20623;-44
2020/12/29 03:45:10;;;;;;;23.05;1.83;;;;;;;;;;5071910;28;20035;-44
2020/12/29 03:47:37;;;;;;;3.38;1.42;;;;;;;;;;5072174;28;20070;-45
2020/12/29 03:52:33;;;;;;;2.90;1.10;;;;;;;;;;4994247;28;20041;-46
2020/12/29 03:55:00;;;;;;;7.30;2.10;;;;;;;;;;5052200;28;20041;-48
2020/12/29 03:57:27;;;;;;;2.13;1.10;;;;;;;;;;5051945;28;21106;-47
2020/12/29 03:59:54;;;;;;;3.85;1.30;;;;;;;;;;5050778;28;20033;-47
2020/12/29 04:02:21;;;;;;;3.38;1.42;;;;;;;;;;5052095;28;20013;-47
2020/12/29 04:04:48;;;;;;;3.05;1.17;;;;;;;;;;5052004;28;20594;-47
2020/12/29 04:07:15;;;;;;;2.53;1.00;;;;;;;;;;5051441;28;20021;-46
2020/12/29 04:09:42;;;;;;;5.03;1.40;;;;;;;;;;5051897;28;20035;-47
2020/12/29 04:12:09;;;;;;;3.63;1.35;;;;;;;;;;5051785;28;20027;-47
2020/12/29 04:14:36;;;;;;;5.10;1.42;;;;;;;;;;5051824;28;20036;-46
2020/12/29 04:17:03;;;;;;;1.75;1.00;;;;;;;;;;5051395;28;20422;-46
2020/12/29 04:19:30;;;;;;;4.00;1.23;;;;;;;;;;5051846;28;20481;-47
2020/12/29 04:21:57;;;;;;;3.03;1.10;;;;;;;;;;5050302;28;20544;-47
2020/12/29 04:24:24;;;;;;;3.08;1.25;;;;;;;;;;5051788;28;20025;-45
2020/12/29 04:26:51;;;;;;;3.63;1.27;;;;;;;;;;5051526;28;20021;-46
2020/12/29 04:29:18;;;;;;;3.25;1.08;;;;;;;;;;5051343;28;20383;-46
2020/12/29 04:31:47;;;;;;;2.28;1.10;;;;;;;;;;5051821;28;20017;-47
2020/12/29 04:34:14;;;;;;;3.50;1.10;;;;;;;;;;5051612;28;20029;-45
2020/12/29 04:36:41;;;;;;;2.83;1.17;;;;;;;;;;5050974;28;20025;-46
2020/12/29 04:39:08;;;;;;;3.38;1.10;;;;;;;;;;5051842;28;20044;-46
2020/12/29 04:41:35;;;;;;;3.33;1.10;;;;;;;;;;5051407;28;20040;-47
2020/12/29 04:44:02;;;;;;;3.28;1.10;;;;;;;;;;5051626;28;20026;-46
2020/12/29 04:46:31;;;;;;;4.47;1.08;;;;;;;;;;5051092;28;20098;-47
2020/12/29 04:48:59;;;;;;;1.85;1.00;;;;;;;;;;5051650;28;20037;-46
2020/12/29 04:51:28;;;;;;;3.90;1.20;;;;;;;;;;5040224;28;20053;-46
2020/12/29 04:53:59;;;;;;;4.03;1.00;;;;;;;;;;5035364;28;20469;-46
2020/12/29 04:56:32;;;;;;;2.88;1.55;;;;;;;;;;5034202;28;20037;-47
2020/12/29 04:59:03;;;;;;;3.97;1.10;;;;;;;;;;5034753;28;20028;-47
2020/12/29 05:01:31;;;;;;;2.45;1.10;;;;;;;;;;5035185;28;20021;-47
2020/12/29 05:03:58;;;;;;;2.55;0.85;;;;;;;;;;5035123;28;20029;-45
2020/12/29 05:06:25;;;;;;;3.78;1.10;;;;;;;;;;5035350;28;20025;-47
2020/12/29 05:08:53;;;;;;;2.25;1.10;;;;;;;;;;5035025;28;20363;-48
2020/12/29 05:11:21;;;;;;;1.88;1.10;;;;;;;;;;5035003;28;20425;-46
2020/12/29 05:13:49;;;;;;;2.38;1.13;;;;;;;;;;5035120;28;20041;-47
2020/12/29 05:16:16;;;;;;;2.45;0.90;;;;;;;;;;5034918;28;20032;-50
2020/12/29 05:18:43;;;;;;;1.10;0.70;;;;;;;;;;5034277;28;20704;-47
2020/12/29 05:21:10;;;;;;;2.88;1.20;;;;;;;;;;5017435;28;20025;-47
2020/12/29 05:23:38;;;;;;;3.45;1.10;;;;;;;;;;5034821;28;20037;-47
2020/12/29 05:26:05;;;;;;;2.35;0.88;;;;;;;;;;5034459;28;20025;-47
2020/12/29 05:28:32;;;;;;;1.00;0.52;;;;;;;;;;5034572;28;20386;-48
2020/12/29 05:30:59;;;;;;;1.67;0.93;;;;;;;;;;5034640;28;20043;-48
2020/12/29 05:33:27;;;;;;;2.30;0.75;;;;;;;;;;5033238;28;20425;-47
2020/12/29 05:35:55;;;;;;;2.25;1.00;;;;;;;;;;5034686;28;20504;-46
2020/12/29 05:38:22;;;;;;;2.05;0.98;;;;;;;;;;5033866;28;20167;-46
2020/12/29 05:40:50;;;;;;;2.65;1.17;;;;;;;;;;5034512;28;20037;-45
2020/12/29 05:43:27;;;;;;;2.55;1.17;;;;;;;;;;5034723;28;20024;-46
2020/12/29 05:45:54;;;;;;;3.75;1.10;;;;;;;;;;5034647;28;20029;-45
2020/12/29 05:48:21;;;;;;;2.80;1.10;;;;;;;;;;5033690;28;20390;-47
2020/12/29 05:50:48;;;;;;;3.70;1.15;;;;;;;;;;5033925;28;20049;-47
2020/12/29 05:53:15;;;;;;;1.83;0.82;;;;;;;;;;5034502;28;20026;-46
2020/12/29 05:55:46;;;;;;;2.13;1.13;;;;;;;;;;5033995;28;20031;-45
2020/12/29 05:58:13;;;;;;;2.47;0.95;;;;;;;;;;5033647;28;20025;-48
2020/12/29 06:00:41;;;;;;;2.75;1.00;;;;;;;;;;5034589;28;20388;-46
2020/12/29 06:03:09;;;;;;;1.65;0.85;;;;;;;;;;5033604;28;20087;-46
2020/12/29 06:05:37;;;;;;;1.95;0.90;;;;;;;;;;5034143;28;20041;-47
2020/12/29 06:08:07;;;;;;;2.42;1.17;;;;;;;;;;5033370;28;20018;-46
2020/12/29 06:10:35;;;;;;;2.95;0.90;;;;;;;;;;5034029;28;20366;-47
2020/12/29 06:13:03;;;;;;;4.10;0.90;;;;;;;;;;5033858;28;20030;-45
2020/12/29 06:15:32;;;;;;;1.05;0.55;;;;;;;;;;5033875;28;20025;-48
2020/12/29 06:18:00;;;;;;;2.78;0.60;;;;;;;;;;5033335;28;20022;-46
2020/12/29 06:20:53;;;;;;;1.50;0.80;;;;;;;;;;5033683;28;20045;-46
2020/12/29 06:23:20;;;;;;;1.83;0.80;;;;;;;;;;5031688;28;20033;-46
2020/12/29 06:25:47;;;;;;;4.35;0.80;;;;;;;;;;5033669;28;20045;-47
2020/12/29 06:28:17;;;;;;;1.73;0.88;;;;;;;;;;5033350;28;20018;-47
2020/12/29 06:30:44;;;;;;;2.55;0.80;;;;;;;;;;5033769;28;20539;-46
2020/12/29 06:33:17;;;;;;;2.10;0.70;;;;;;;;;;5032714;28;20091;-47
2020/12/29 06:35:45;;;;;;;1.33;0.70;;;;;;;;;;5032251;28;20030;-47
2020/12/29 06:38:15;;;;;;;2.05;0.68;;;;;;;;;;5033547;28;20072;-47
2020/12/29 06:40:47;;;;;;;1.88;0.75;;;;;;;;;;5033418;28;20052;-45
2020/12/29 06:43:14;;;;;;;1.77;0.73;;;;;;;;;;5033213;28;20022;-45
2020/12/29 06:45:41;;;;;;;1.92;1.05;;;;;;;;;;5033238;28;20041;-44
2020/12/29 06:48:17;;;;;;;1.27;0.60;;;;;;;;;;5033046;28;20100;-46
2020/12/29 06:50:44;;;;;;;1.92;0.60;;;;;;;;;;5032930;28;20045;-46
2020/12/29 06:53:15;;;;;;;1.48;0.73;;;;;;;;;;5033079;28;20025;-46
2020/12/29 06:55:46;;;;;;;1.95;0.60;;;;;;;;;;5033178;28;20428;-47
2020/12/29 06:58:29;;;;;;;1.33;0.70;;;;;;;;;;5032760;28;20014;-47
2020/12/29 07:01:14;;;;;;;1.40;0.73;;;;;;;;;;5033240;28;20387;-46
2020/12/29 07:03:42;;;;;;;1.48;0.80;;;;;;;;;;5033001;28;20053;-47
2020/12/29 07:06:09;;;;;;;2.22;0.73;;;;;;;;;;5032597;28;20026;-46
2020/12/29 07:08:39;;;;;;;1.40;0.65;;;;;;;;;;5032773;28;20052;-47
2020/12/29 07:11:23;;;;;;;1.92;0.80;;;;;;;;;;5032925;28;20147;-46
2020/12/29 07:13:51;;;;;;;1.50;0.80;;;;;;;;;;5032279;28;20029;-47
2020/12/29 07:16:23;;;;;;;1.55;0.63;;;;;;;;;;5032467;28;20045;-47
2020/12/29 07:18:50;;;;;;;1.00;0.70;;;;;;;;;;5031997;28;20473;-45
2020/12/29 07:21:26;;;;;;;0.93;0.60;;;;;;;;;;5032750;28;20519;-47
2020/12/29 07:23:54;;;;;;;1.55;0.60;;;;;;;;;;5032868;28;20021;-46
2020/12/29 07:26:22;;;;;;;1.23;0.60;;;;;;;;;;5032583;28;20113;-46
2020/12/29 07:28:57;;;;;;;1.23;0.63;;;;;;;;;;5030817;28;20108;-47
2020/12/29 07:31:24;;;;;;;0.95;0.52;;;;;;;;;;5032447;28;20026;-47
2020/12/29 07:33:53;;;;;;;0.88;0.63;;;;;;;;;;5032387;28;20025;-46
2020/12/29 07:36:21;;;;;;;1.33;0.82;;;;;;;;;;5032320;28;20029;-46
2020/12/29 07:38:49;;;;;;;0.63;0.50;;;;;;;;;;5032555;28;20029;-46
2020/12/29 07:41:17;;;;;;;1.50;0.63;;;;;;;;;;5032468;28;20017;-47
2020/12/29 07:43:45;;;;;;;1.25;0.47;;;;;;;;;;5032318;28;20028;-46
2020/12/29 07:46:12;;;;;;;1.80;0.77;;;;;;;;;;5031960;28;20029;-47
2020/12/29 07:48:39;;;;;;;0.52;0.40;;;;;;;;;;5032161;28;20414;-47
2020/12/29 07:51:07;;;;;;;2.00;0.50;;;;;;;;;;5031927;28;20061;-47
2020/12/29 07:53:34;;;;;;;1.00;0.45;;;;;;;;;;5032058;28;20030;-47
2020/12/29 07:56:01;;;;;;;2.35;0.60;;;;;;;;;;5032400;28;20112;-47
2020/12/29 07:58:28;;;;;;;1.35;0.75;;;;;;;;;;5031976;28;20025;-46
2020/12/29 08:00:55;;;;;;;1.60;0.70;;;;;;;;;;5031982;28;20025;-47
2020/12/29 08:03:22;;;;;;;1.25;0.60;;;;;;;;;;5032204;28;20018;-46
2020/12/29 08:05:49;;;;;;;2.35;0.60;;;;;;;;;;5032017;28;20495;-46
2020/12/29 08:08:17;;;;;;;0.85;0.45;;;;;;;;;;5031474;28;20412;-46
2020/12/29 08:10:47;;;;;;;0.73;0.40;;;;;;;;;;5032157;28;20537;-47
2020/12/29 08:13:14;;;;;;;0.75;0.50;;;;;;;;;;5031923;28;20392;-48
2020/12/29 08:15:42;;;;;;;0.80;0.40;;;;;;;;;;5031905;28;20021;-46
2020/12/29 08:18:18;;;;;;;0.90;0.57;;;;;;;;;;5031964;28;20029;-47
2020/12/29 08:20:48;;;;;;;1.08;0.50;;;;;;;;;;5031735;28;20140;-46
2020/12/29 08:23:19;;;;;;;0.50;0.50;;;;;;;;;;5030520;28;20366;-47
2020/12/29 08:25:50;;;;;;;1.15;0.65;;;;;;;;;;5033081;28;20032;-46
2020/12/29 08:28:17;;;;;;;1.23;0.50;;;;;;;;;;5034683;28;20021;-47
2020/12/29 08:30:44;;;;;;;1.10;0.65;;;;;;;;;;5035832;28;20025;-47
2020/12/29 08:33:14;;;;;;;1.38;0.63;;;;;;;;;;5018230;28;20100;-47
2020/12/29 08:35:48;;;;;;;0.93;0.70;;;;;;;;;;5035750;28;20465;-45
2020/12/29 08:38:45;;;;;;;0.70;0.50;;;;;;;;;;5035144;28;20021;-47
2020/12/29 08:41:29;;;;;;;0.90;0.50;;;;;;;;;;5035647;28;20026;-45
2020/12/29 08:44:01;;;;;;;0.85;0.40;;;;;;;;;;5035927;28;20362;-48
2020/12/29 08:46:34;;;;;;;1.33;0.73;;;;;;;;;;5035815;28;20493;-46
2020/12/29 08:49:02;;;;;;;0.75;0.32;;;;;;;;;;5034848;28;20018;-48
2020/12/29 08:51:30;;;;;;;1.20;0.65;;;;;;;;;;5033760;28;20061;-47
2020/12/29 08:54:10;;;;;;;0.95;0.52;;;;;;;;;;5035546;28;20042;-47
2020/12/29 08:56:37;;;;;;;1.10;0.50;;;;;;;;;;5035598;28;20487;-47
2020/12/29 08:59:14;;;;;;;0.93;0.50;;;;;;;;;;5034618;28;20025;-47
2020/12/29 09:01:45;;;;;;;1.05;0.50;;;;;;;;;;5035179;28;20018;-47
2020/12/29 09:04:21;;;;;;;0.90;0.40;;;;;;;;;;5035175;28;20040;-47
2020/12/29 09:07:06;;;;;;;0.50;0.43;;;;;;;;;;5035222;28;20032;-47
2020/12/29 09:09:35;;;;;;;0.50;0.40;;;;;;;;;;5034745;28;20025;-47
2020/12/29 09:12:09;;;;;;;0.40;0.40;;;;;;;;;;5034896;28;20025;-49
2020/12/29 09:14:37;;;;;;;0.55;0.35;;;;;;;;;;5034914;28;20430;-47
2020/12/29 09:17:04;;;;;;;1.35;0.52;;;;;;;;;;5034976;28;20219;-49
2020/12/29 09:19:32;;;;;;;1.23;0.70;;;;;;;;;;5034501;28;20083;-48
2020/12/29 09:22:17;;;;;;;1.63;0.70;;;;;;;;;;5034411;28;20029;-48
2020/12/29 09:24:53;;;;;;;0.70;0.45;;;;;;;;;;5034817;28;20029;-48
2020/12/29 09:27:32;;;;;;;0.80;0.50;;;;;;;;;;5034749;28;20033;-49
2020/12/29 09:30:11;;;;;;;0.77;0.40;;;;;;;;;;5034511;28;20060;-47
2020/12/29 09:32:38;;;;;;;1.55;0.50;;;;;;;;;;5034689;28;20018;-46
2020/12/29 09:35:25;;;;;;;1.15;0.50;;;;;;;;;;5034425;28;20037;-48
2020/12/29 09:37:55;;;;;;;0.85;0.60;;;;;;;;;;5032799;28;20029;-46
2020/12/29 09:40:23;;;;;;;0.80;0.60;;;;;;;;;;5034667;28;20026;-47
2020/12/29 09:42:50;;;;;;;0.95;0.50;;;;;;;;;;5034535;28;20030;-47
2020/12/29 09:45:25;;;;;;;0.80;0.40;;;;;;;;;;5034628;28;20014;-46
2020/12/29 09:47:52;;;;;;;1.50;0.60;;;;;;;;;;5034019;28;20029;-46
2020/12/29 09:50:19;;;;;;;0.85;0.47;;;;;;;;;;5032879;28;20025;-46
2020/12/29 09:52:47;;;;;;;0.65;0.40;;;;;;;;;;5034230;28;20099;-45
2020/12/29 09:55:14;;;;;;;0.80;0.40;;;;;;;;;;5034377;28;20136;-46
2020/12/29 09:57:41;;;;;;;1.40;0.80;;;;;;;;;;5033856;28;20100;-46
2020/12/29 10:00:08;;;;;;;1.08;0.73;;;;;;;;;;5016506;28;20412;-45
2020/12/29 10:02:35;;;;;;;1.05;0.50;;;;;;;;;;5034178;28;20100;-46
2020/12/29 10:05:02;;;;;;;1.10;0.40;;;;;;;;;;5034130;28;20417;-46
2020/12/29 10:07:29;;;;;;;1.15;0.70;;;;;;;;;;5034012;28;20052;-45
2020/12/29 10:09:56;;;;;;;1.05;0.50;;;;;;;;;;5033623;28;20018;-46
2020/12/29 10:12:23;;;;;;;1.60;0.55;;;;;;;;;;5034027;28;20032;-45
2020/12/29 10:14:50;;;;;;;0.35;0.30;;;;;;;;;;5033223;28;20408;-46
2020/12/29 10:17:17;;;;;;;0.80;0.40;;;;;;;;;;5034042;28;20022;-45
2020/12/29 10:19:45;;;;;;;0.80;0.45;;;;;;;;;;5033688;28;20529;-46
2020/12/29 10:22:12;;;;;;;1.00;0.50;;;;;;;;;;5032526;28;20448;-45
2020/12/29 10:24:39;;;;;;;0.90;0.40;;;;;;;;;;5033839;28;20070;-46
2020/12/29 10:27:06;;;;;;;0.90;0.50;;;;;;;;;;5033578;28;20022;-47
2020/12/29 10:29:33;;;;;;;1.52;0.50;;;;;;;;;;5033290;28;20021;-46
2020/12/29 10:32:00;;;;;;;1.00;0.50;;;;;;;;;;5033574;28;20021;-47
2020/12/29 10:34:27;;;;;;;1.45;0.57;;;;;;;;;;5032946;28;20033;-46
2020/12/29 10:36:54;;;;;;;1.13;0.40;;;;;;;;;;5033537;28;20118;-46
2020/12/29 10:39:21;;;;;;;0.80;0.50;;;;;;;;;;5033070;28;20611;-45
2020/12/29 10:41:47;;;;;;;2.35;0.70;;;;;;;;;;5033355;28;20030;-45
2020/12/29 10:44:14;;;;;;;1.27;0.77;;;;;;;;;;5033158;28;20026;-45
2020/12/29 10:46:46;;;;;;;0.90;0.60;;;;;;;;;;5033482;28;20509;-47
2020/12/29 10:49:14;;;;;;;1.58;0.70;;;;;;;;;;5031923;28;20473;-46
2020/12/29 10:51:40;;;;;;;1.08;0.60;;;;;;;;;;5031688;28;20056;-45
2020/12/29 10:54:07;;;;;;;0.68;0.40;;;;;;;;;;5033042;28;20037;-47
2020/12/29 10:56:35;;;;;;;0.52;0.50;;;;;;;;;;5033308;28;20026;-47
2020/12/29 10:59:03;;;;;;;1.00;0.43;;;;;;;;;;5032583;28;20385;-46
2020/12/29 11:01:30;;;;;;;1.20;0.40;;;;;;;;;;5032867;28;20027;-46
2020/12/29 11:03:57;;;;;;;1.60;0.50;;;;;;;;;;5033167;28;20061;-46
2020/12/29 11:06:24;;;;;;;1.33;0.60;;;;;;;;;;5033005;28;20031;-48
2020/12/29 11:08:52;;;;;;;0.65;0.40;;;;;;;;;;5032623;28;20026;-46
2020/12/29 11:11:20;;;;;;;2.50;0.60;;;;;;;;;;5032599;28;20098;-47
2020/12/29 11:13:47;;;;;;;0.77;0.50;;;;;;;;;;5032685;28;20132;-47
2020/12/29 11:16:15;;;;;;;1.65;0.47;;;;;;;;;;5032677;28;20029;-45
2020/12/29 11:18:42;;;;;;;1.48;0.50;;;;;;;;;;5031919;28;20021;-48
2020/12/29 11:21:10;;;;;;;3.08;0.85;;;;;;;;;;5032179;28;20060;-46
2020/12/29 11:23:37;;;;;;;1.80;0.68;;;;;;;;;;5032282;28;20420;-45
2020/12/29 11:26:04;;;;;;;2.10;0.70;;;;;;;;;;5042613;28;20113;-46
2020/12/29 11:28:31;;;;;;;3.65;0.70;;;;;;;;;;5051388;28;20025;-44
2020/12/29 11:30:58;;;;;;;0.90;0.60;;;;;;;;;;5052365;28;20158;-45
2020/12/29 11:33:25;;;;;;;1.73;0.60;;;;;;;;;;5052416;28;20434;-44
2020/12/29 11:35:52;;;;;;;0.95;0.80;;;;;;;;;;5052398;28;20036;-45
2020/12/29 11:38:23;;;;;;;2.42;0.68;;;;;;;;;;5052062;28;20498;-44
2020/12/29 11:40:50;;;;;;;1.92;0.70;;;;;;;;;;5051999;28;20156;-45
2020/12/29 11:43:17;;;;;;;1.10;0.57;;;;;;;;;;5052374;28;20021;-45
2020/12/29 11:45:44;;;;;;;1.15;0.57;;;;;;;;;;5052146;28;20484;-48
2020/12/29 11:48:11;;;;;;;0.63;0.40;;;;;;;;;;5037935;28;20034;-45
2020/12/29 11:50:38;;;;;;;1.55;0.68;;;;;;;;;;5034292;28;20554;-47
2020/12/29 11:53:05;;;;;;;3.97;0.60;;;;;;;;;;5051917;28;20060;-47
2020/12/29 11:55:32;;;;;;;3.13;0.50;;;;;;;;;;5052153;28;20032;-47
2020/12/29 11:57:59;;;;;;;3.40;0.50;;;;;;;;;;5051605;28;20021;-46
2020/12/29 12:00:26;;;;;;;1.00;0.50;;;;;;;;;;5051603;28;20036;-46
2020/12/29 12:02:53;;;;;;;2.95;0.77;;;;;;;;;;5051855;28;20548;-45
2020/12/29 12:05:20;;;;;;;5.00;1.13;;;;;;;;;;5048203;28;20035;-47
2020/12/29 12:07:47;;;;;;;3.80;0.50;;;;;;;;;;5031872;28;20588;-46
2020/12/29 12:10:15;;;;;;;0.40;0.40;;;;;;;;;;5031467;28;20092;-46
2020/12/29 12:12:42;;;;;;;1.98;0.70;;;;;;;;;;5032151;28;20022;-44
2020/12/29 12:15:09;;;;;;;2.67;0.55;;;;;;;;;;5031965;28;20615;-45
2020/12/29 12:17:36;;;;;;;1.50;0.55;;;;;;;;;;5031839;28;20023;-44
2020/12/29 12:20:03;;;;;;;4.55;0.63;;;;;;;;;;5045093;28;20107;-44
2020/12/29 12:22:30;;;;;;;1.80;0.50;;;;;;;;;;5050148;28;20066;-45
2020/12/29 12:24:57;;;;;;;0.90;0.38;;;;;;;;;;5051080;28;20032;-43
2020/12/29 12:27:24;;;;;;;1.42;0.30;;;;;;;;;;5051187;28;20021;-44
2020/12/29 12:29:51;;;;;;;1.33;0.60;;;;;;;;;;5050609;28;20553;-45
2020/12/29 12:32:18;;;;;;;5.13;0.77;;;;;;;;;;5050872;28;20028;-45
2020/12/29 12:34:45;;;;;;;3.53;1.05;;;;;;;;;;5051031;28;20033;-43
2020/12/29 12:37:12;;;;;;;38.72;0.90;;;;;;;;;;5049919;28;20110;-44
2020/12/29 12:39:40;;;;;;;3.25;0.73;;;;;;;;;;5050349;28;20373;-44
2020/12/29 12:42:11;;;;;;;6.35;0.75;;;;;;;;;;5051236;28;20033;-45
2020/12/29 12:44:42;;;;;;;4.00;1.10;;;;;;;;;;5050238;28;20455;-45
2020/12/29 12:47:09;;;;;;;1.98;0.93;;;;;;;;;;5051309;28;20083;-43
2020/12/29 12:49:36;;;;;;;7.22;0.75;;;;;;;;;;5050798;28;20075;-43
2020/12/29 12:52:03;;;;;;;2.42;0.73;;;;;;;;;;5050275;28;20049;-45
2020/12/29 12:54:30;;;;;;;3.38;0.77;;;;;;;;;;5050124;28;20390;-45
2020/12/29 12:56:57;;;;;;;6.65;0.50;;;;;;;;;;5039948;28;20060;-43
2020/12/29 12:59:24;;;;;;;3.08;0.70;;;;;;;;;;5031435;28;20117;-45
2020/12/29 13:01:52;;;;;;;4.35;0.60;;;;;;;;;;5032221;28;20032;-44
2020/12/29 13:04:19;;;;;;;1.77;0.70;;;;;;;;;;5036200;28;20029;-45
2020/12/29 13:06:46;;;;;;;0.70;0.38;;;;;;;;;;5040213;28;20493;-44
2020/12/29 13:09:13;;;;;;;1.15;0.30;;;;;;;;;;5043041;28;20477;-44
2020/12/29 13:11:40;;;;;;;0.88;0.43;;;;;;;;;;5040842;28;20032;-45
2020/12/29 13:14:07;;;;;;;0.47;0.40;;;;;;;;;;5052601;28;20041;-45
2020/12/29 13:16:34;;;;;;;2.78;0.60;;;;;;;;;;5054262;28;20059;-44
2020/12/29 13:19:01;;;;;;;2.35;0.60;;;;;;;;;;5053782;28;20033;-44
2020/12/29 13:21:28;;;;;;;2.60;0.93;;;;;;;;;;5054318;28;20028;-44
2020/12/29 13:23:55;;;;;;;2.60;0.65;;;;;;;;;;5053232;28;20035;-43
2020/12/29 13:26:23;;;;;;;12.93;1.38;;;;;;;;;;5027429;28;20017;-46
2020/12/29 13:28:50;;;;;;;9.68;1.17;;;;;;;;;;5048834;28;20028;-43
2020/12/29 13:31:20;;;;;;;6.40;1.10;;;;;;;;;;5029641;28;20025;-43
2020/12/29 13:33:47;;;;;;;13.32;1.80;;;;;;;;;;5044885;28;20474;-44
2020/12/29 13:36:14;;;;;;;10.00;0.85;;;;;;;;;;5049752;28;20100;-45
2020/12/29 13:38:41;;;;;;;6.60;1.00;;;;;;;;;;5050537;28;20079;-43
2020/12/29 13:41:08;;;;;;;4.00;0.95;;;;;;;;;;5046457;28;20029;-44
2020/12/29 13:43:36;;;;;;;4.38;0.90;;;;;;;;;;5050210;28;20051;-44
2020/12/29 13:46:03;;;;;;;3.75;0.80;;;;;;;;;;5044311;28;20025;-45
2020/12/29 13:48:31;;;;;;;8.60;0.95;;;;;;;;;;5051003;28;20021;-44
2020/12/29 13:51:00;;;;;;;2.95;0.60;;;;;;;;;;5046207;28;20048;-43
2020/12/29 13:53:27;;;;;;;6.53;1.27;;;;;;;;;;5053367;28;20119;-43
2020/12/29 13:55:54;;;;;;;4.05;1.13;;;;;;;;;;5047431;28;20027;-44
2020/12/29 13:58:21;;;;;;;6.30;1.13;;;;;;;;;;5048089;28;20035;-43
2020/12/29 14:00:48;;;;;;;6.70;1.00;;;;;;;;;;5047332;28;20033;-43
2020/12/29 14:03:15;;;;;;;8.45;0.93;;;;;;;;;;5053118;28;20017;-43
2020/12/29 14:05:42;;;;;;;3.58;0.70;;;;;;;;;;5051174;28;20029;-44
2020/12/29 14:08:09;;;;;;;5.03;0.88;;;;;;;;;;5045581;28;20025;-43
2020/12/29 14:10:36;;;;;;;7.22;0.93;;;;;;;;;;5048219;28;20119;-43
2020/12/29 14:13:03;;;;;;;8.02;1.20;;;;;;;;;;5041536;28;20036;-44
2020/12/29 14:15:30;;;;;;;6.13;1.02;;;;;;;;;;5049913;28;20059;-44
2020/12/29 14:18:00;;;;;;;5.65;0.70;;;;;;;;;;5043077;28;20021;-45
2020/12/29 14:20:27;;;;;;;8.15;1.17;;;;;;;;;;5046480;28;20080;-44
2020/12/29 14:22:54;;;;;;;7.00;1.35;;;;;;;;;;5049350;28;20025;-47
2020/12/29 14:25:21;;;;;;;9.07;1.40;;;;;;;;;;5047753;28;20488;-47
2020/12/29 14:27:49;;;;;;;10.50;1.42;;;;;;;;;;5049086;28;20384;-45
2020/12/29 14:30:17;;;;;;;5.72;1.05;;;;;;;;;;5046274;28;20029;-48
2020/12/29 14:32:46;;;;;;;9.27;1.30;;;;;;;;;;5047174;28;20037;-47
2020/12/29 14:35:13;;;;;;;3.70;0.88;;;;;;;;;;5042344;28;20116;-47
2020/12/29 14:37:40;;;;;;;8.50;1.67;;;;;;;;;;5045410;28;20053;-46
2020/12/29 14:40:07;;;;;;;7.53;1.00;;;;;;;;;;5049436;28;20032;-45
2020/12/29 14:42:35;;;;;;;2.30;0.73;;;;;;;;;;5050180;28;20028;-45
2020/12/29 14:45:02;;;;;;;5.90;1.23;;;;;;;;;;5048759;28;20051;-46
2020/12/29 14:47:29;;;;;;;5.82;0.80;;;;;;;;;;5026629;28;20422;-47
2020/12/29 14:49:56;;;;;;;5.45;1.10;;;;;;;;;;5048285;28;20385;-49